EZS49KR LSGG-LFKB
Flight info
| Callsign | EZS49KR |
|---|---|
| Flight time | 0h 56m |
| Altitude | 23000 |
| Route | MEDAM DCT NITAM DCT MOGBO DCT LAGEN DCT ANAKI DCT OLETI/N0345F190 M858 LIGUR |
| Aircraft | A320/M-SDE2E3FGHIJ1RWXYZ/LB1 |
Departure
| Time | 2026-05-08 21:52 |
|---|---|
| Airport | Geneva International Airport (LSGG) |
Arrival
| Time | 2026-05-08 22:48 |
|---|---|
| Airport | Bastia-Poretta International airport (LFKB) |
| Time | Latitude | Longitude | Altitude | Speed | Heading |
|---|---|---|---|---|---|
| 2026-05-08 21:29 | 46.22944 | 6.10455 | 1385 ft | 0 kts | 135° |
| 2026-05-08 21:43 | 46.22959 | 6.10436 | 1389 ft | 4 kts | 144° |
| 2026-05-08 21:44 | 46.22990 | 6.10416 | 1386 ft | 4 kts | 185° |
| 2026-05-08 21:44 | 46.23004 | 6.10422 | 1385 ft | 2 kts | 224° |
| 2026-05-08 21:44 | 46.23009 | 6.10428 | 1385 ft | 0 kts | 225° |
| 2026-05-08 21:47 | 46.23008 | 6.10427 | 1385 ft | 2 kts | 225° |
| 2026-05-08 21:47 | 46.22981 | 6.10387 | 1389 ft | 9 kts | 226° |
| 2026-05-08 21:47 | 46.22963 | 6.10300 | 1390 ft | 9 kts | 295° |
| 2026-05-08 21:47 | 46.23009 | 6.10226 | 1388 ft | 12 kts | 317° |
| 2026-05-08 21:48 | 46.23054 | 6.10140 | 1387 ft | 10 kts | 272° |
| 2026-05-08 21:48 | 46.23004 | 6.10051 | 1389 ft | 14 kts | 225° |
| 2026-05-08 21:48 | 46.22921 | 6.09928 | 1386 ft | 19 kts | 226° |
| 2026-05-08 21:48 | 46.22823 | 6.09786 | 1389 ft | 21 kts | 225° |
| 2026-05-08 21:49 | 46.22720 | 6.09635 | 1388 ft | 21 kts | 225° |
| 2026-05-08 21:49 | 46.22615 | 6.09480 | 1389 ft | 22 kts | 225° |
| 2026-05-08 21:49 | 46.22551 | 6.09331 | 1389 ft | 15 kts | 258° |
| 2026-05-08 21:49 | 46.22558 | 6.09195 | 1390 ft | 13 kts | 293° |
| 2026-05-08 21:50 | 46.22619 | 6.09152 | 1395 ft | 8 kts | 13° |
| 2026-05-08 21:50 | 46.22648 | 6.09195 | 1396 ft | 4 kts | 48° |
| 2026-05-08 21:50 | 46.22654 | 6.09204 | 1398 ft | 0 kts | 46° |
| 2026-05-08 21:50 | 46.22655 | 6.09205 | 1398 ft | 2 kts | 46° |
| 2026-05-08 21:51 | 46.22747 | 6.09346 | 1401 ft | 52 kts | 46° |
| 2026-05-08 21:51 | 46.23159 | 6.09950 | 1388 ft | 113 kts | 45° |
| 2026-05-08 21:51 | 46.23818 | 6.10919 | 1399 ft | 159 kts | 45° |
| 2026-05-08 21:51 | 46.24648 | 6.12170 | 1690 ft | 178 kts | 47° |
| 2026-05-08 21:52 | 46.25503 | 6.13527 | 2260 ft | 187 kts | 49° |
| 2026-05-08 21:52 | 46.26404 | 6.14940 | 2788 ft | 198 kts | 47° |
| 2026-05-08 21:52 | 46.27394 | 6.16463 | 3086 ft | 222 kts | 46° |
| 2026-05-08 21:52 | 46.28554 | 6.18154 | 3363 ft | 251 kts | 45° |
| 2026-05-08 21:53 | 46.29859 | 6.19998 | 3841 ft | 271 kts | 45° |
| 2026-05-08 21:53 | 46.31215 | 6.21938 | 4705 ft | 276 kts | 45° |
| 2026-05-08 21:53 | 46.32582 | 6.23906 | 5591 ft | 279 kts | 45° |
| 2026-05-08 21:53 | 46.33959 | 6.25902 | 6493 ft | 281 kts | 45° |
| 2026-05-08 21:54 | 46.35334 | 6.27931 | 7352 ft | 284 kts | 49° |
| 2026-05-08 21:54 | 46.36349 | 6.30400 | 8048 ft | 291 kts | 76° |
| 2026-05-08 21:54 | 46.36343 | 6.33308 | 8806 ft | 293 kts | 109° |
| 2026-05-08 21:54 | 46.35272 | 6.35758 | 9588 ft | 292 kts | 141° |
| 2026-05-08 21:55 | 46.33464 | 6.36992 | 10353 ft | 290 kts | 174° |
| 2026-05-08 21:55 | 46.31485 | 6.36654 | 11037 ft | 293 kts | 199° |
| 2026-05-08 21:55 | 46.29505 | 6.35522 | 11199 ft | 318 kts | 205° |
| 2026-05-08 21:56 | 46.25399 | 6.32672 | 12524 ft | 329 kts | 206° |
| 2026-05-08 21:56 | 46.23255 | 6.31464 | 13251 ft | 334 kts | 198° |
| 2026-05-08 21:56 | 46.20997 | 6.30632 | 13965 ft | 338 kts | 191° |
| 2026-05-08 21:56 | 46.18658 | 6.30512 | 14580 ft | 343 kts | 178° |
| 2026-05-08 21:57 | 46.16272 | 6.30669 | 15219 ft | 345 kts | 181° |
| 2026-05-08 21:57 | 46.13863 | 6.30652 | 15861 ft | 348 kts | 183° |
| 2026-05-08 21:57 | 46.11432 | 6.30520 | 16491 ft | 350 kts | 185° |
| 2026-05-08 21:57 | 46.08986 | 6.30333 | 17110 ft | 354 kts | 185° |
| 2026-05-08 21:58 | 46.06523 | 6.30133 | 17725 ft | 357 kts | 185° |
| 2026-05-08 21:58 | 46.04028 | 6.29940 | 18329 ft | 360 kts | 185° |
| 2026-05-08 21:58 | 46.01517 | 6.29764 | 18848 ft | 364 kts | 185° |
| 2026-05-08 21:58 | 45.98974 | 6.29600 | 19383 ft | 367 kts | 184° |
| 2026-05-08 21:59 | 45.96409 | 6.29443 | 19894 ft | 371 kts | 184° |
| 2026-05-08 21:59 | 45.93824 | 6.29293 | 20410 ft | 374 kts | 184° |
| 2026-05-08 21:59 | 45.91215 | 6.29452 | 20894 ft | 379 kts | 173° |
| 2026-05-08 21:59 | 45.88637 | 6.30370 | 21385 ft | 385 kts | 161° |
| 2026-05-08 22:00 | 45.86212 | 6.32046 | 21856 ft | 391 kts | 150° |
| 2026-05-08 22:00 | 45.83984 | 6.34337 | 22298 ft | 396 kts | 145° |
| 2026-05-08 22:00 | 45.81767 | 6.36710 | 22782 ft | 400 kts | 145° |
| 2026-05-08 22:00 | 45.79531 | 6.39094 | 23068 ft | 402 kts | 145° |
| 2026-05-08 22:01 | 45.77311 | 6.41452 | 23118 ft | 389 kts | 145° |
| 2026-05-08 22:01 | 45.75158 | 6.43733 | 23114 ft | 383 kts | 146° |
| 2026-05-08 22:01 | 45.73022 | 6.45990 | 23123 ft | 381 kts | 146° |
| 2026-05-08 22:01 | 45.70889 | 6.48239 | 23121 ft | 380 kts | 146° |
| 2026-05-08 22:02 | 45.68754 | 6.50487 | 23139 ft | 380 kts | 146° |
| 2026-05-08 22:02 | 45.66623 | 6.52729 | 23142 ft | 380 kts | 146° |
| 2026-05-08 22:02 | 45.64494 | 6.54971 | 23142 ft | 380 kts | 146° |
| 2026-05-08 22:02 | 45.62369 | 6.57210 | 23141 ft | 380 kts | 146° |
| 2026-05-08 22:03 | 45.60238 | 6.59453 | 23145 ft | 380 kts | 146° |
| 2026-05-08 22:03 | 45.58137 | 6.61667 | 23145 ft | 380 kts | 145° |
| 2026-05-08 22:03 | 45.56008 | 6.63909 | 23146 ft | 380 kts | 146° |
| 2026-05-08 22:03 | 45.53881 | 6.66142 | 23143 ft | 379 kts | 146° |
| 2026-05-08 22:04 | 45.51729 | 6.68393 | 23141 ft | 379 kts | 146° |
| 2026-05-08 22:04 | 45.49632 | 6.70586 | 23143 ft | 379 kts | 146° |
| 2026-05-08 22:04 | 45.47509 | 6.72806 | 23138 ft | 379 kts | 146° |
| 2026-05-08 22:04 | 45.45383 | 6.75027 | 23135 ft | 379 kts | 146° |
| 2026-05-08 22:05 | 45.43243 | 6.77221 | 23127 ft | 378 kts | 147° |
| 2026-05-08 22:05 | 45.41095 | 6.79383 | 23141 ft | 379 kts | 147° |
| 2026-05-08 22:05 | 45.38935 | 6.81536 | 23143 ft | 379 kts | 147° |
| 2026-05-08 22:05 | 45.36777 | 6.83680 | 23139 ft | 379 kts | 147° |
| 2026-05-08 22:06 | 45.34619 | 6.85825 | 23144 ft | 378 kts | 147° |
| 2026-05-08 22:06 | 45.32464 | 6.87973 | 23149 ft | 378 kts | 147° |
| 2026-05-08 22:06 | 45.30310 | 6.90124 | 23153 ft | 378 kts | 147° |
| 2026-05-08 22:06 | 45.28161 | 6.92276 | 23155 ft | 378 kts | 147° |
| 2026-05-08 22:07 | 45.26073 | 6.94528 | 23156 ft | 379 kts | 140° |
| 2026-05-08 22:07 | 45.24176 | 6.97126 | 23148 ft | 379 kts | 137° |
| 2026-05-08 22:07 | 45.22284 | 6.99747 | 23150 ft | 380 kts | 137° |
| 2026-05-08 22:07 | 45.20390 | 7.02361 | 23153 ft | 380 kts | 137° |
| 2026-05-08 22:08 | 45.18495 | 7.04968 | 23156 ft | 380 kts | 138° |
| 2026-05-08 22:08 | 45.16595 | 7.07577 | 23160 ft | 380 kts | 138° |
| 2026-05-08 22:08 | 45.14700 | 7.10173 | 23159 ft | 379 kts | 138° |
| 2026-05-08 22:08 | 45.12828 | 7.12731 | 23165 ft | 379 kts | 138° |
| 2026-05-08 22:09 | 45.10951 | 7.15350 | 23169 ft | 379 kts | 134° |
| 2026-05-08 22:09 | 45.09343 | 7.18311 | 23171 ft | 380 kts | 127° |
| 2026-05-08 22:09 | 45.07827 | 7.21386 | 23173 ft | 380 kts | 127° |
| 2026-05-08 22:09 | 45.06309 | 7.24452 | 23174 ft | 381 kts | 127° |
| 2026-05-08 22:10 | 45.04790 | 7.27514 | 23174 ft | 380 kts | 127° |
| 2026-05-08 22:10 | 45.03273 | 7.30568 | 23174 ft | 380 kts | 127° |
| 2026-05-08 22:10 | 45.01748 | 7.33626 | 23173 ft | 380 kts | 127° |
| 2026-05-08 22:10 | 45.00219 | 7.36682 | 23171 ft | 381 kts | 127° |
| 2026-05-08 22:11 | 44.98692 | 7.39731 | 23135 ft | 380 kts | 127° |
| 2026-05-08 22:11 | 44.97152 | 7.42777 | 23135 ft | 380 kts | 128° |
| 2026-05-08 22:11 | 44.95587 | 7.45777 | 23135 ft | 380 kts | 128° |
| 2026-05-08 22:11 | 44.93997 | 7.48763 | 23128 ft | 380 kts | 129° |
| 2026-05-08 22:12 | 44.92405 | 7.51730 | 23126 ft | 380 kts | 129° |
| 2026-05-08 22:12 | 44.90816 | 7.54699 | 23126 ft | 380 kts | 129° |
| 2026-05-08 22:12 | 44.89224 | 7.57680 | 23125 ft | 379 kts | 129° |
| 2026-05-08 22:12 | 44.87636 | 7.60650 | 23124 ft | 379 kts | 129° |
| 2026-05-08 22:13 | 44.86051 | 7.63618 | 23115 ft | 380 kts | 129° |
| 2026-05-08 22:13 | 44.84460 | 7.66596 | 23112 ft | 380 kts | 129° |
| 2026-05-08 22:13 | 44.82873 | 7.69571 | 23111 ft | 380 kts | 129° |
| 2026-05-08 22:13 | 44.81306 | 7.72510 | 23112 ft | 380 kts | 129° |
| 2026-05-08 22:14 | 44.79716 | 7.75490 | 23112 ft | 380 kts | 129° |
| 2026-05-08 22:14 | 44.78123 | 7.78468 | 23109 ft | 381 kts | 129° |
| 2026-05-08 22:14 | 44.76530 | 7.81441 | 23110 ft | 381 kts | 129° |
| 2026-05-08 22:14 | 44.74937 | 7.84409 | 23113 ft | 381 kts | 129° |
| 2026-05-08 22:15 | 44.73342 | 7.87371 | 23113 ft | 380 kts | 129° |
| 2026-05-08 22:15 | 44.71741 | 7.90337 | 23108 ft | 380 kts | 129° |
| 2026-05-08 22:15 | 44.70142 | 7.93299 | 23106 ft | 381 kts | 129° |
| 2026-05-08 22:15 | 44.68539 | 7.96273 | 23106 ft | 381 kts | 129° |
| 2026-05-08 22:16 | 44.66941 | 7.99241 | 23099 ft | 381 kts | 129° |
| 2026-05-08 22:16 | 44.65341 | 8.02209 | 23100 ft | 382 kts | 129° |
| 2026-05-08 22:16 | 44.63732 | 8.05183 | 23097 ft | 382 kts | 129° |
| 2026-05-08 22:16 | 44.62127 | 8.08152 | 23098 ft | 382 kts | 129° |
| 2026-05-08 22:17 | 44.60520 | 8.11123 | 23098 ft | 382 kts | 129° |
| 2026-05-08 22:17 | 44.58911 | 8.14090 | 23099 ft | 382 kts | 129° |
| 2026-05-08 22:17 | 44.57298 | 8.17056 | 23099 ft | 382 kts | 129° |
| 2026-05-08 22:17 | 44.55686 | 8.20022 | 23097 ft | 382 kts | 129° |
| 2026-05-08 22:18 | 44.54074 | 8.22987 | 23102 ft | 382 kts | 129° |
| 2026-05-08 22:18 | 44.52464 | 8.25948 | 23101 ft | 382 kts | 129° |
| 2026-05-08 22:18 | 44.50853 | 8.28909 | 23101 ft | 382 kts | 129° |
| 2026-05-08 22:18 | 44.49237 | 8.31874 | 23102 ft | 382 kts | 129° |
| 2026-05-08 22:19 | 44.47622 | 8.34827 | 23097 ft | 382 kts | 129° |
| 2026-05-08 22:19 | 44.46003 | 8.37783 | 23095 ft | 383 kts | 129° |
| 2026-05-08 22:19 | 44.44405 | 8.40696 | 23095 ft | 383 kts | 129° |
| 2026-05-08 22:19 | 44.42781 | 8.43656 | 23096 ft | 383 kts | 129° |
| 2026-05-08 22:20 | 44.41157 | 8.46622 | 23077 ft | 384 kts | 129° |
| 2026-05-08 22:20 | 44.39488 | 8.49527 | 23071 ft | 383 kts | 135° |
| 2026-05-08 22:20 | 44.37539 | 8.52040 | 23071 ft | 381 kts | 141° |
| 2026-05-08 22:20 | 44.35510 | 8.54427 | 23068 ft | 381 kts | 141° |
| 2026-05-08 22:21 | 44.33482 | 8.56808 | 23066 ft | 381 kts | 141° |
| 2026-05-08 22:21 | 44.31450 | 8.59197 | 23065 ft | 381 kts | 141° |
| 2026-05-08 22:21 | 44.29423 | 8.61584 | 23094 ft | 381 kts | 141° |
| 2026-05-08 22:21 | 44.27399 | 8.63968 | 23082 ft | 381 kts | 142° |
| 2026-05-08 22:22 | 44.25371 | 8.66356 | 23076 ft | 382 kts | 142° |
| 2026-05-08 22:22 | 44.23344 | 8.68742 | 23078 ft | 382 kts | 142° |
| 2026-05-08 22:22 | 44.21313 | 8.71128 | 23079 ft | 382 kts | 142° |
| 2026-05-08 22:22 | 44.19149 | 8.73242 | 23070 ft | 380 kts | 153° |
| 2026-05-08 22:23 | 44.16815 | 8.74954 | 23067 ft | 379 kts | 154° |
| 2026-05-08 22:23 | 44.14466 | 8.76655 | 23067 ft | 380 kts | 154° |
| 2026-05-08 22:23 | 44.12120 | 8.78360 | 23062 ft | 380 kts | 154° |
| 2026-05-08 22:23 | 44.09773 | 8.80067 | 23060 ft | 381 kts | 154° |
| 2026-05-08 22:24 | 44.07457 | 8.81752 | 23055 ft | 381 kts | 155° |
| 2026-05-08 22:24 | 44.05110 | 8.83459 | 23058 ft | 381 kts | 154° |
| 2026-05-08 22:24 | 44.02760 | 8.85166 | 23060 ft | 381 kts | 155° |
| 2026-05-08 22:24 | 44.00412 | 8.86868 | 23063 ft | 381 kts | 155° |
| 2026-05-08 22:25 | 43.98057 | 8.88571 | 23064 ft | 381 kts | 155° |
| 2026-05-08 22:25 | 43.95705 | 8.90269 | 23065 ft | 381 kts | 155° |
| 2026-05-08 22:25 | 43.93354 | 8.91967 | 23066 ft | 381 kts | 155° |
| 2026-05-08 22:25 | 43.91007 | 8.93663 | 23073 ft | 381 kts | 155° |
| 2026-05-08 22:26 | 43.88660 | 8.95355 | 22955 ft | 378 kts | 155° |
| 2026-05-08 22:26 | 43.86342 | 8.97024 | 22487 ft | 374 kts | 155° |
| 2026-05-08 22:26 | 43.84039 | 8.98676 | 22031 ft | 371 kts | 155° |
| 2026-05-08 22:26 | 43.81666 | 8.99976 | 21576 ft | 365 kts | 168° |
| 2026-05-08 22:27 | 43.79181 | 9.00519 | 21129 ft | 359 kts | 180° |
| 2026-05-08 22:27 | 43.76710 | 9.00362 | 20695 ft | 354 kts | 187° |
| 2026-05-08 22:27 | 43.74266 | 9.00063 | 20264 ft | 352 kts | 187° |
| 2026-05-08 22:27 | 43.71825 | 8.99771 | 19837 ft | 350 kts | 187° |
| 2026-05-08 22:28 | 43.69404 | 8.99488 | 19408 ft | 349 kts | 187° |
| 2026-05-08 22:28 | 43.66990 | 8.99210 | 18981 ft | 347 kts | 187° |
| 2026-05-08 22:28 | 43.64580 | 8.98934 | 18567 ft | 346 kts | 187° |
| 2026-05-08 22:28 | 43.62186 | 8.98658 | 18122 ft | 345 kts | 187° |
| 2026-05-08 22:29 | 43.59804 | 8.98381 | 17685 ft | 342 kts | 187° |
| 2026-05-08 22:29 | 43.57438 | 8.98107 | 17287 ft | 340 kts | 187° |
| 2026-05-08 22:29 | 43.55090 | 8.97837 | 16878 ft | 338 kts | 187° |
| 2026-05-08 22:29 | 43.52757 | 8.97567 | 16479 ft | 336 kts | 187° |
| 2026-05-08 22:30 | 43.50436 | 8.97286 | 16078 ft | 334 kts | 187° |
| 2026-05-08 22:30 | 43.48121 | 8.96999 | 15693 ft | 333 kts | 187° |
| 2026-05-08 22:30 | 43.45848 | 8.96714 | 15296 ft | 332 kts | 187° |
| 2026-05-08 22:30 | 43.43524 | 8.96421 | 14880 ft | 331 kts | 187° |
| 2026-05-08 22:31 | 43.41265 | 8.96139 | 14512 ft | 330 kts | 187° |
| 2026-05-08 22:31 | 43.38976 | 8.95856 | 14114 ft | 330 kts | 186° |
| 2026-05-08 22:31 | 43.36708 | 8.95588 | 13859 ft | 324 kts | 186° |
| 2026-05-08 22:31 | 43.34484 | 8.95339 | 13649 ft | 317 kts | 186° |
| 2026-05-08 22:32 | 43.32305 | 8.95097 | 13430 ft | 311 kts | 186° |
| 2026-05-08 22:32 | 43.30153 | 8.94859 | 13221 ft | 309 kts | 186° |
| 2026-05-08 22:32 | 43.28019 | 8.94621 | 13011 ft | 307 kts | 186° |
| 2026-05-08 22:32 | 43.25885 | 8.94382 | 12804 ft | 307 kts | 186° |
| 2026-05-08 22:33 | 43.23755 | 8.94362 | 12601 ft | 307 kts | 174° |
| 2026-05-08 22:33 | 43.21684 | 8.95066 | 12387 ft | 308 kts | 159° |
| 2026-05-08 22:33 | 43.19799 | 8.96441 | 12189 ft | 308 kts | 149° |
| 2026-05-08 22:33 | 43.17977 | 8.97970 | 11968 ft | 307 kts | 149° |
| 2026-05-08 22:34 | 43.16153 | 8.99480 | 11767 ft | 305 kts | 149° |
| 2026-05-08 22:34 | 43.14333 | 9.00979 | 11562 ft | 304 kts | 149° |
| 2026-05-08 22:34 | 43.12520 | 9.02436 | 11326 ft | 300 kts | 151° |
| 2026-05-08 22:34 | 43.10714 | 9.03806 | 11084 ft | 295 kts | 152° |
| 2026-05-08 22:35 | 43.08928 | 9.05123 | 10835 ft | 290 kts | 152° |
| 2026-05-08 22:35 | 43.07162 | 9.06410 | 10589 ft | 285 kts | 152° |
| 2026-05-08 22:35 | 43.05421 | 9.07679 | 10350 ft | 281 kts | 152° |
| 2026-05-08 22:35 | 43.03716 | 9.08930 | 10121 ft | 276 kts | 152° |
| 2026-05-08 22:36 | 43.02066 | 9.10149 | 9954 ft | 269 kts | 152° |
| 2026-05-08 22:36 | 43.00428 | 9.11359 | 9818 ft | 260 kts | 152° |
| 2026-05-08 22:36 | 42.98881 | 9.12504 | 9690 ft | 256 kts | 151° |
| 2026-05-08 22:36 | 42.97299 | 9.13635 | 9552 ft | 257 kts | 158° |
| 2026-05-08 22:37 | 42.95555 | 9.14336 | 9434 ft | 269 kts | 167° |
| 2026-05-08 22:37 | 42.93692 | 9.14872 | 9304 ft | 276 kts | 168° |
| 2026-05-08 22:37 | 42.91809 | 9.15391 | 9172 ft | 277 kts | 168° |
| 2026-05-08 22:37 | 42.89925 | 9.15907 | 9049 ft | 276 kts | 168° |
| 2026-05-08 22:38 | 42.88039 | 9.16422 | 8915 ft | 276 kts | 168° |
| 2026-05-08 22:38 | 42.86170 | 9.16995 | 8785 ft | 275 kts | 160° |
| 2026-05-08 22:38 | 42.84418 | 9.18058 | 8658 ft | 276 kts | 153° |
| 2026-05-08 22:38 | 42.82709 | 9.19244 | 8528 ft | 276 kts | 153° |
| 2026-05-08 22:39 | 42.81003 | 9.20443 | 8407 ft | 276 kts | 153° |
| 2026-05-08 22:39 | 42.79876 | 9.21235 | 8320 ft | 275 kts | 153° |
| 2026-05-08 22:39 | 42.78195 | 9.22483 | 8193 ft | 275 kts | 144° |
| 2026-05-08 22:39 | 42.76880 | 9.24337 | 8085 ft | 274 kts | 127° |
| 2026-05-08 22:40 | 42.75388 | 9.27128 | 7820 ft | 275 kts | 125° |
| 2026-05-08 22:40 | 42.74257 | 9.29210 | 7492 ft | 272 kts | 127° |
| 2026-05-08 22:40 | 42.73474 | 9.30570 | 7244 ft | 269 kts | 128° |
| 2026-05-08 22:40 | 42.72329 | 9.32529 | 6882 ft | 259 kts | 128° |
| 2026-05-08 22:41 | 42.71241 | 9.34445 | 6386 ft | 254 kts | 123° |
| 2026-05-08 22:41 | 42.70295 | 9.36429 | 5926 ft | 248 kts | 120° |
| 2026-05-08 22:41 | 42.69621 | 9.38555 | 5390 ft | 243 kts | 104° |
| 2026-05-08 22:41 | 42.69382 | 9.40798 | 4905 ft | 239 kts | 94° |
| 2026-05-08 22:42 | 42.69299 | 9.43010 | 4456 ft | 234 kts | 92° |
| 2026-05-08 22:42 | 42.69242 | 9.45194 | 4074 ft | 228 kts | 92° |
| 2026-05-08 22:42 | 42.69215 | 9.47327 | 3697 ft | 225 kts | 85° |
| 2026-05-08 22:42 | 42.69732 | 9.49286 | 3327 ft | 222 kts | 51° |
| 2026-05-08 22:43 | 42.70965 | 9.50481 | 3053 ft | 222 kts | 16° |
| 2026-05-08 22:43 | 42.72489 | 9.50507 | 2848 ft | 223 kts | 342° |
| 2026-05-08 22:43 | 42.73750 | 9.49347 | 2763 ft | 223 kts | 307° |
| 2026-05-08 22:43 | 42.74318 | 9.47411 | 2686 ft | 224 kts | 273° |
| 2026-05-08 22:44 | 42.73994 | 9.45367 | 2575 ft | 223 kts | 238° |
| 2026-05-08 22:44 | 42.72897 | 9.43950 | 2508 ft | 219 kts | 203° |
| 2026-05-08 22:44 | 42.71410 | 9.43599 | 2508 ft | 220 kts | 178° |
| 2026-05-08 22:44 | 42.69870 | 9.43552 | 2293 ft | 218 kts | 181° |
| 2026-05-08 22:45 | 42.68382 | 9.43474 | 1969 ft | 212 kts | 182° |
| 2026-05-08 22:45 | 42.66938 | 9.43458 | 1626 ft | 202 kts | 175° |
| 2026-05-08 22:45 | 42.65619 | 9.43849 | 1396 ft | 184 kts | 162° |
| 2026-05-08 22:45 | 42.64476 | 9.44407 | 1299 ft | 165 kts | 160° |
| 2026-05-08 22:46 | 42.63446 | 9.44913 | 1255 ft | 151 kts | 161° |
| 2026-05-08 22:46 | 42.62482 | 9.45369 | 1149 ft | 144 kts | 161° |
| 2026-05-08 22:46 | 42.61539 | 9.45796 | 984 ft | 142 kts | 162° |
| 2026-05-08 22:46 | 42.60594 | 9.46152 | 883 ft | 141 kts | 166° |
| 2026-05-08 22:47 | 42.59643 | 9.46487 | 764 ft | 142 kts | 163° |
| 2026-05-08 22:47 | 42.58716 | 9.46924 | 578 ft | 141 kts | 161° |
| 2026-05-08 22:47 | 42.57793 | 9.47337 | 368 ft | 138 kts | 164° |
| 2026-05-08 22:47 | 42.56875 | 9.47698 | 165 ft | 137 kts | 162° |
| 2026-05-08 22:48 | 42.55971 | 9.48079 | 33 ft | 131 kts | 165° |
| 2026-05-08 22:48 | 42.55255 | 9.48377 | 37 ft | 69 kts | 163° |
| 2026-05-08 22:48 | 42.55023 | 9.48471 | 37 ft | 13 kts | 176° |
| 2026-05-08 22:48 | 42.54974 | 9.48372 | 35 ft | 15 kts | 252° |
| 2026-05-08 22:49 | 42.54962 | 9.48319 | 35 ft | 0 kts | 253° |
| 2026-05-08 22:49 | 42.54952 | 9.48276 | 35 ft | 13 kts | 250° |
| 2026-05-08 22:50 | 42.54863 | 9.48264 | 35 ft | 15 kts | 164° |
| 2026-05-08 22:50 | 42.54797 | 9.48293 | 35 ft | 1 kts | 162° |
| 2026-05-08 22:50 | 42.54793 | 9.48294 | 35 ft | 0 kts | 162° |
| 2026-05-08 22:50 | 42.54785 | 9.48298 | 35 ft | 6 kts | 161° |
| 2026-05-08 22:51 | 42.54742 | 9.48265 | 35 ft | 9 kts | 250° |
| 2026-05-08 22:51 | 42.54730 | 9.48215 | 35 ft | 7 kts | 252° |
| 2026-05-08 22:51 | 42.54724 | 9.48189 | 35 ft | 0 kts | 252° |